createdAt,value
2023-01-12T00:01:59.924Z,99896.19
2023-01-12T00:04:26.926Z,99880.66
2023-01-12T00:06:53.941Z,99876.84
2023-01-12T00:09:20.761Z,99865.66
2023-01-12T00:11:47.519Z,99863.66
2023-01-12T00:14:15.084Z,99863.44
2023-01-12T00:16:42.901Z,99864.88
2023-01-12T00:19:23.359Z,99850.72
2023-01-12T00:22:11.557Z,99844.56
2023-01-12T00:24:41.463Z,99844.19
2023-01-12T00:27:11.264Z,99845.47
2023-01-12T00:29:38.074Z,99846.69
2023-01-12T00:32:05.962Z,99879.53
2023-01-12T00:34:32.708Z,99918.25
2023-01-12T00:37:03.922Z,99927.97
2023-01-12T00:39:30.954Z,99920.66
2023-01-12T00:42:16.189Z,99904.97
2023-01-12T00:45:01.371Z,99874.69
2023-01-12T00:47:28.112Z,99864.06
2023-01-12T00:49:54.737Z,99853.66
2023-01-12T00:52:30.315Z,99836.00
2023-01-12T00:54:59.913Z,99839.44
2023-01-12T00:57:28.343Z,99825.22
2023-01-12T00:59:57.881Z,99815.19
2023-01-12T01:02:24.761Z,99815.19
2023-01-12T01:04:51.480Z,99814.81
2023-01-12T01:07:21.621Z,99812.97
2023-01-12T01:09:49.011Z,99801.34
2023-01-12T01:12:15.979Z,99804.47
2023-01-12T01:14:42.905Z,99800.25
2023-01-12T01:17:09.710Z,99790.69
2023-01-12T01:19:36.961Z,99767.72
2023-01-12T01:22:04.249Z,99760.50
2023-01-12T01:24:31.075Z,99765.22
2023-01-12T01:26:59.897Z,99761.69
2023-01-12T01:29:27.171Z,99749.59
2023-01-12T01:31:57.782Z,99745.06
2023-01-12T01:34:24.926Z,99737.06
2023-01-12T01:36:51.921Z,99723.47
2023-01-12T01:39:18.847Z,99717.19
2023-01-12T01:41:45.661Z,99715.66
2023-01-12T01:44:30.721Z,99718.56
2023-01-12T01:47:00.346Z,99707.41
2023-01-12T01:49:49.439Z,99704.16
2023-01-12T01:52:55.202Z,99695.53
2023-01-12T01:55:26.461Z,99699.72
2023-01-12T01:58:03.328Z,99692.38
2023-01-12T02:00:30.388Z,99692.75
2023-01-12T02:02:59.697Z,99678.44
2023-01-12T02:05:28.673Z,99669.16
2023-01-12T02:08:00.935Z,99661.47
2023-01-12T02:10:27.683Z,99654.59
2023-01-12T02:13:13.220Z,99650.78
2023-01-12T02:16:10.347Z,99658.78
2023-01-12T02:18:50.049Z,99656.44
2023-01-12T02:21:22.773Z,99655.22
2023-01-12T02:24:08.340Z,99657.84
2023-01-12T02:26:56.611Z,99661.63
2023-01-12T02:29:44.933Z,99659.19
2023-01-12T02:32:21.397Z,99666.31
2023-01-12T02:35:25.025Z,99653.63
2023-01-12T02:38:17.743Z,99647.47
2023-01-12T02:41:00.098Z,99662.50
2023-01-12T02:43:32.464Z,99652.41
2023-01-12T02:46:16.393Z,99659.34
2023-01-12T02:48:52.647Z,99666.19
2023-01-12T02:51:44.550Z,99661.63
2023-01-12T02:54:14.477Z,99653.25
2023-01-12T02:56:44.922Z,99656.19
2023-01-12T02:59:20.450Z,99656.31
2023-01-12T03:01:51.225Z,99652.25
2023-01-12T03:04:20.041Z,99647.38
2023-01-12T03:06:55.945Z,99647.00
2023-01-12T03:09:30.294Z,99649.72
2023-01-12T03:12:05.927Z,99645.66
2023-01-12T03:14:37.594Z,99638.78
2023-01-12T03:17:14.714Z,99633.03
2023-01-12T03:19:44.053Z,99637.06
2023-01-12T03:22:15.251Z,99643.94
2023-01-12T03:24:50.279Z,99651.16
2023-01-12T03:27:21.152Z,99644.53
2023-01-12T03:29:57.071Z,99641.59
2023-01-12T03:32:24.685Z,99645.94
2023-01-12T03:34:51.684Z,99655.41
2023-01-12T03:37:31.786Z,99645.56
2023-01-12T03:40:07.099Z,99640.94
2023-01-12T03:42:38.461Z,99645.22
2023-01-12T03:45:17.255Z,99643.66
2023-01-12T03:47:44.504Z,99632.75
2023-01-12T03:50:18.802Z,99632.59
2023-01-12T03:52:48.737Z,99639.25
2023-01-12T03:55:20.106Z,99636.59
2023-01-12T03:57:47.730Z,99629.31
2023-01-12T04:00:17.120Z,99636.22
2023-01-12T04:02:44.315Z,99640.72
2023-01-12T04:05:13.583Z,99637.41
2023-01-12T04:07:40.656Z,99641.16
2023-01-12T04:10:08.249Z,99641.41
2023-01-12T04:12:35.105Z,99632.22
2023-01-12T04:15:02.122Z,99626.88
2023-01-12T04:17:29.317Z,99629.13
2023-01-12T04:19:56.879Z,99615.75
2023-01-12T04:22:43.061Z,99615.38
2023-01-12T04:25:15.967Z,99607.56
2023-01-12T04:27:47.651Z,99603.47
2023-01-12T04:30:17.041Z,99608.28
2023-01-12T04:32:44.664Z,99605.31
2023-01-12T04:35:12.460Z,99605.31
2023-01-12T04:37:39.923Z,99597.34
2023-01-12T04:40:08.165Z,99594.47
2023-01-12T04:42:53.468Z,99604.34
2023-01-12T04:45:20.282Z,99585.81
2023-01-12T04:47:47.158Z,99594.00
2023-01-12T04:50:14.437Z,99588.00
2023-01-12T04:52:41.376Z,99591.56
2023-01-12T04:55:08.510Z,99590.13
2023-01-12T04:57:35.854Z,99580.31
2023-01-12T05:00:04.874Z,99586.00
2023-01-12T05:02:31.825Z,99577.63
2023-01-12T05:04:58.627Z,99570.53
2023-01-12T05:07:25.686Z,99563.66
2023-01-12T05:10:10.952Z,99559.97
2023-01-12T05:12:38.191Z,99554.81
2023-01-12T05:15:05.805Z,99557.75
2023-01-12T05:17:33.164Z,99552.38
2023-01-12T05:20:00.984Z,99552.25
2023-01-12T05:22:28.377Z,99544.13
2023-01-12T05:24:55.536Z,99535.94
2023-01-12T05:27:22.377Z,99528.09
2023-01-12T05:29:49.670Z,99527.75
2023-01-12T05:32:16.806Z,99519.16
2023-01-12T05:34:43.646Z,99501.13
2023-01-12T05:37:10.625Z,99499.41
2023-01-12T05:39:38.712Z,99497.81
2023-01-12T05:42:23.995Z,99491.28
2023-01-12T05:44:50.753Z,99488.72
2023-01-12T05:47:17.924Z,99487.84
2023-01-12T05:49:44.856Z,99489.56
2023-01-12T05:52:11.649Z,99468.25
2023-01-12T05:54:38.697Z,99468.47
2023-01-12T05:57:05.964Z,99468.59
2023-01-12T05:59:33.098Z,99460.75
2023-01-12T06:01:59.874Z,99452.00
2023-01-12T06:04:26.645Z,99442.81
2023-01-12T06:06:53.484Z,99434.34
2023-01-12T06:09:20.408Z,99428.72
2023-01-12T06:12:07.378Z,99412.75
2023-01-12T06:14:35.975Z,99420.00
2023-01-12T06:17:03.899Z,99407.81
2023-01-12T06:19:31.401Z,99399.09
2023-01-12T06:21:59.717Z,99385.50
2023-01-12T06:24:28.706Z,99375.41
2023-01-12T06:26:55.955Z,99367.06
2023-01-12T06:29:22.912Z,99356.25
2023-01-12T06:31:49.713Z,99334.41
2023-01-12T06:34:16.584Z,99332.56
2023-01-12T06:36:43.709Z,99332.31
2023-01-12T06:39:13.706Z,99317.47
2023-01-12T06:41:59.320Z,99302.41
2023-01-12T06:44:26.134Z,99282.47
2023-01-12T06:46:52.893Z,99274.50
2023-01-12T06:49:19.905Z,99269.38
2023-01-12T06:51:51.510Z,99236.03
2023-01-12T06:54:18.857Z,99239.91
2023-01-12T06:56:45.788Z,99221.22
2023-01-12T06:59:13.126Z,99211.25
2023-01-12T07:01:40.950Z,99204.03
2023-01-12T07:04:08.385Z,99181.44
2023-01-12T07:06:35.427Z,99178.28
2023-01-12T07:09:02.953Z,99165.69
2023-01-12T07:11:29.820Z,99153.34
2023-01-12T07:13:56.935Z,99143.38
2023-01-12T07:16:23.959Z,99129.50
2023-01-12T07:18:50.802Z,99121.50
2023-01-12T07:21:19.669Z,99113.28
2023-01-12T07:23:46.526Z,99106.75
2023-01-12T07:26:13.564Z,99086.56
2023-01-12T07:28:40.891Z,99084.50
2023-01-12T07:31:07.902Z,99082.78
2023-01-12T07:33:36.787Z,99061.97
2023-01-12T07:36:04.037Z,99047.84
2023-01-12T07:38:31.918Z,99028.16
2023-01-12T07:41:00.681Z,99019.34
2023-01-12T07:43:27.773Z,99004.75
2023-01-12T07:45:59.908Z,99000.94
2023-01-12T07:48:27.647Z,98986.06
2023-01-12T07:50:54.945Z,98980.03
2023-01-12T07:53:21.854Z,98955.53
2023-01-12T07:55:48.825Z,98958.41
2023-01-12T07:58:15.591Z,98934.66
2023-01-12T08:01:01.727Z,98934.78
2023-01-12T08:03:30.756Z,98922.13
2023-01-12T08:06:08.353Z,98917.13
2023-01-12T08:08:46.145Z,98906.31
2023-01-12T08:11:14.984Z,98895.94
2023-01-12T08:13:43.928Z,98890.25
2023-01-12T08:16:24.909Z,98877.31
2023-01-12T08:19:05.592Z,98862.38
2023-01-12T08:21:48.402Z,98846.88
2023-01-12T08:35:26.668Z,98786.63
2023-01-12T08:38:02.449Z,98774.41
2023-01-12T08:40:58.134Z,98777.13
2023-01-12T08:43:58.489Z,98770.41
2023-01-12T08:47:21.153Z,98757.78
2023-01-12T08:49:56.385Z,98745.13
2023-01-12T08:52:35.586Z,98754.66
2023-01-12T08:55:05.818Z,98739.16
2023-01-12T08:57:40.645Z,98745.09
2023-01-12T09:00:16.141Z,98729.31
2023-01-12T09:02:48.250Z,98727.63
2023-01-12T09:05:18.926Z,98709.09
2023-01-12T09:07:49.057Z,98700.59
2023-01-12T09:10:27.107Z,98714.22
2023-01-12T09:12:58.924Z,98705.00
2023-01-12T09:15:43.204Z,98691.16
2023-01-12T09:18:19.695Z,98676.06
2023-01-12T09:20:49.668Z,98692.28
2023-01-12T09:23:18.804Z,98673.22
2023-01-12T09:26:04.175Z,98682.63
2023-01-12T09:28:31.684Z,98688.59
2023-01-12T09:31:03.612Z,98660.44
2023-01-12T09:33:33.787Z,98649.75
2023-01-12T09:36:09.130Z,98648.19
2023-01-12T09:38:38.795Z,98641.06
2023-01-12T09:41:49.386Z,98647.13
2023-01-12T09:44:41.870Z,98643.19
2023-01-12T09:47:21.714Z,98632.88
2023-01-12T09:50:08.764Z,98604.81
2023-01-12T09:52:56.646Z,98610.53
2023-01-12T09:55:27.662Z,98614.47
2023-01-12T09:58:12.813Z,98620.03
2023-01-12T10:00:40.042Z,98622.88
2023-01-12T10:03:10.196Z,98614.94
2023-01-12T10:05:50.373Z,98620.03
2023-01-12T10:08:31.016Z,98607.13
2023-01-12T10:11:07.967Z,98590.84
2023-01-12T10:14:04.134Z,98624.00
2023-01-12T10:16:38.089Z,98600.59
2023-01-12T10:19:20.999Z,98580.81
2023-01-12T10:21:56.465Z,98570.50
2023-01-12T10:24:26.182Z,98571.38
2023-01-12T10:27:04.362Z,98565.47
2023-01-12T10:29:37.419Z,98583.03
2023-01-12T10:32:07.077Z,98573.44
2023-01-12T10:34:59.043Z,98571.25
2023-01-12T10:37:27.652Z,98561.53
2023-01-12T10:39:55.022Z,98567.28
2023-01-12T10:42:42.358Z,98553.78
2023-01-12T10:45:16.532Z,98571.75
2023-01-12T10:47:47.646Z,98560.91
2023-01-12T10:50:36.382Z,98550.66
2023-01-12T10:53:07.269Z,98562.66
2023-01-12T10:55:42.706Z,98543.91
2023-01-12T10:58:21.822Z,98543.06
2023-01-12T11:00:50.248Z,98533.63
2023-01-12T11:03:30.045Z,98539.56
2023-01-12T11:05:57.481Z,98523.06
2023-01-12T11:08:27.962Z,98527.47
2023-01-12T11:10:56.591Z,98527.19
2023-01-12T11:13:37.675Z,98534.63
2023-01-12T11:16:25.092Z,98521.91
2023-01-12T11:19:23.152Z,98530.41
2023-01-12T11:22:17.636Z,98520.97
2023-01-12T11:25:23.010Z,98522.28
2023-01-12T11:28:12.730Z,98517.63
2023-01-12T11:31:01.216Z,98522.34
2023-01-12T11:33:35.208Z,98520.00
2023-01-12T11:36:10.668Z,98601.31
2023-01-12T11:38:46.357Z,98595.53
2023-01-12T11:41:40.280Z,98600.63
2023-01-12T11:44:35.336Z,98592.13
2023-01-12T11:47:13.151Z,98604.84
2023-01-12T11:49:53.679Z,98587.06
2023-01-12T11:52:21.758Z,98594.41
2023-01-12T11:54:48.631Z,98591.53
2023-01-12T11:57:38.571Z,98587.19
2023-01-12T12:00:17.155Z,98571.63
2023-01-12T12:02:51.338Z,98579.25
2023-01-12T12:05:33.791Z,98578.41
2023-01-12T12:08:41.812Z,98580.94
2023-01-12T12:11:44.179Z,98578.22
2023-01-12T12:14:44.511Z,98580.25
2023-01-12T12:17:32.011Z,98571.28
2023-01-12T12:20:35.396Z,98569.25
2023-01-12T12:23:31.435Z,98589.41
2023-01-12T12:26:19.993Z,98606.88
2023-01-12T12:32:46.630Z,98609.81
2023-01-12T12:35:42.040Z,98647.72
2023-01-12T12:38:13.052Z,98668.19
2023-01-12T12:41:27.574Z,98669.25
2023-01-12T12:44:45.518Z,98713.41
2023-01-12T12:47:49.286Z,98725.16
2023-01-12T12:50:28.471Z,98730.50
2023-01-12T12:53:20.518Z,98759.22
2023-01-12T12:55:50.036Z,98749.28
2023-01-12T12:58:22.889Z,98759.28
2023-01-12T13:00:55.059Z,98774.97
2023-01-12T13:03:40.156Z,98784.97
2023-01-12T13:06:30.239Z,98793.09
2023-01-12T13:09:00.031Z,98782.97
2023-01-12T13:11:45.282Z,98801.22
2023-01-12T13:14:25.325Z,98804.47
2023-01-12T13:16:54.565Z,98817.00
2023-01-12T13:19:42.734Z,98825.13
2023-01-12T13:22:43.622Z,98841.53
2023-01-12T13:25:10.185Z,98785.97
2023-01-12T13:28:01.451Z,98817.59
2023-01-12T13:30:31.218Z,98842.59
2023-01-12T13:33:21.029Z,98841.19
2023-01-12T13:35:47.622Z,98846.47
2023-01-12T13:38:33.063Z,98863.69
2023-01-12T13:41:15.372Z,98868.56
2023-01-12T13:43:48.189Z,98875.81
2023-01-12T13:46:16.166Z,98892.06
2023-01-12T13:48:47.765Z,98891.34
2023-01-12T13:51:21.936Z,98902.19
2023-01-12T13:54:11.786Z,98912.41
2023-01-12T13:56:39.561Z,98924.53
2023-01-12T13:59:17.841Z,98930.97
2023-01-12T14:01:46.298Z,98937.97
2023-01-12T14:04:20.448Z,98941.38
2023-01-12T14:07:29.871Z,98946.38
2023-01-12T14:10:32.524Z,98952.91
2023-01-12T14:13:28.616Z,98967.63
2023-01-12T14:16:21.053Z,98981.69
2023-01-12T14:18:49.601Z,98985.41
2023-01-12T14:21:33.338Z,99006.50
2023-01-12T14:24:21.295Z,99024.19
2023-01-12T14:26:48.227Z,99024.47
2023-01-12T14:29:15.069Z,99024.91
2023-01-12T14:31:50.512Z,99038.72
2023-01-12T14:34:37.678Z,99036.16
2023-01-12T14:37:07.882Z,99040.13
2023-01-12T14:39:41.099Z,99040.59
2023-01-12T14:42:36.357Z,99061.50
2023-01-12T14:45:31.161Z,99075.59
2023-01-12T14:48:20.359Z,99093.84
2023-01-12T14:51:00.483Z,99098.72
2023-01-12T14:53:33.423Z,99105.81
2023-01-12T14:56:49.650Z,99113.94
2023-01-12T14:59:24.765Z,99128.47
2023-01-12T15:01:52.950Z,99122.34
2023-01-12T15:04:23.167Z,99142.16
2023-01-12T15:07:02.386Z,99153.25
2023-01-12T15:09:50.672Z,99168.78
2023-01-12T15:12:29.598Z,99175.75
2023-01-12T15:15:48.664Z,99184.31
2023-01-12T15:18:33.965Z,99177.75
2023-01-12T15:21:19.996Z,99180.84
2023-01-12T15:24:05.809Z,99195.97
2023-01-12T15:26:32.480Z,99213.59
2023-01-12T15:28:59.184Z,99222.44
2023-01-12T15:31:36.107Z,99237.50
2023-01-12T15:34:04.049Z,99234.53
2023-01-12T15:36:30.734Z,99245.22
2023-01-12T15:38:57.985Z,99252.91
2023-01-12T15:41:49.376Z,99266.00
2023-01-12T15:44:21.145Z,99282.38
2023-01-12T15:46:48.167Z,99282.66
2023-01-12T15:49:16.046Z,99283.38
2023-01-12T15:51:50.297Z,99293.50
2023-01-12T15:54:21.861Z,99292.75
2023-01-12T15:56:48.738Z,99288.63
2023-01-12T15:59:16.523Z,99288.63
2023-01-12T16:01:49.970Z,99282.94
2023-01-12T16:07:10.793Z,99289.44
2023-01-12T16:09:37.570Z,99282.97
2023-01-12T16:12:04.616Z,99290.50
2023-01-12T16:14:31.416Z,99295.69
2023-01-12T16:16:58.137Z,99293.16
2023-01-12T16:19:24.990Z,99295.31
2023-01-12T16:21:55.174Z,99295.59
2023-01-12T16:24:24.597Z,99294.72
2023-01-12T16:26:51.300Z,99295.47
2023-01-12T16:29:19.304Z,99308.56
2023-01-12T16:31:46.030Z,99306.41
2023-01-12T16:34:12.793Z,99303.97
2023-01-12T16:36:39.591Z,99309.09
2023-01-12T16:39:06.231Z,99308.63
2023-01-12T16:41:32.964Z,99306.75
2023-01-12T16:43:59.629Z,99303.31
2023-01-12T16:46:26.485Z,99298.63
2023-01-12T16:48:55.275Z,99299.19
2023-01-12T16:51:22.293Z,99300.59
2023-01-12T16:53:49.215Z,99299.25
2023-01-12T16:56:16.604Z,99294.38
2023-01-12T16:58:48.044Z,99295.50
2023-01-12T17:01:19.288Z,99292.94
2023-01-12T17:03:46.534Z,99288.44
2023-01-12T17:06:19.457Z,99283.84
2023-01-12T17:08:46.452Z,99272.03
2023-01-12T17:11:16.195Z,99254.34
2023-01-12T17:13:43.117Z,99251.19
2023-01-12T17:16:11.883Z,99249.75
2023-01-12T17:18:39.218Z,99239.53
2023-01-12T17:21:12.818Z,99245.63
2023-01-12T17:23:41.862Z,99232.75
2023-01-12T17:26:17.672Z,99238.53
2023-01-12T17:28:45.469Z,99231.88
2023-01-12T17:31:19.228Z,99236.13
2023-01-12T17:33:46.588Z,99233.13
2023-01-12T17:36:13.966Z,99231.81
2023-01-12T17:38:40.752Z,99218.84
2023-01-12T17:41:31.269Z,99210.50
2023-01-12T17:43:58.070Z,99213.03
2023-01-12T17:46:24.791Z,99209.59
2023-01-12T17:48:51.447Z,99194.69
2023-01-12T17:51:18.210Z,99179.72
2023-01-12T17:53:45.792Z,99180.41
2023-01-12T17:56:13.796Z,99176.44
2023-01-12T17:58:41.034Z,99168.47
2023-01-12T18:01:14.319Z,99163.06
2023-01-12T18:03:41.068Z,99153.34
2023-01-12T18:06:12.036Z,99142.69
2023-01-12T18:08:49.821Z,99141.13
2023-01-12T18:11:18.143Z,99129.75
2023-01-12T18:13:45.285Z,99135.31
2023-01-12T18:16:14.029Z,99127.91
2023-01-12T18:18:42.425Z,99123.22
2023-01-12T18:21:12.393Z,99109.81
2023-01-12T18:23:39.564Z,99119.78
2023-01-12T18:26:10.276Z,99111.22
2023-01-12T18:28:37.200Z,99097.56
2023-01-12T18:31:10.444Z,99091.16
2023-01-12T18:33:37.850Z,99082.47
2023-01-12T18:36:14.121Z,99065.38
2023-01-12T18:38:41.964Z,99056.97
2023-01-12T18:41:28.537Z,99048.97
2023-01-12T18:43:55.635Z,99038.41
2023-01-12T18:46:42.289Z,99024.31
2023-01-12T18:49:09.107Z,99015.31
2023-01-12T18:51:56.016Z,99001.91
2023-01-12T18:54:22.667Z,98997.34
2023-01-12T18:56:49.967Z,98985.09
2023-01-12T18:59:16.676Z,98978.38
2023-01-12T19:01:43.564Z,98959.53
2023-01-12T19:04:14.813Z,98947.69
2023-01-12T19:06:44.499Z,98945.22
2023-01-12T19:09:32.811Z,98933.72
2023-01-12T19:11:59.549Z,98929.44
2023-01-12T19:14:44.879Z,98911.09
2023-01-12T19:17:27.186Z,98898.13
2023-01-12T19:19:54.690Z,98887.53
2023-01-12T19:22:39.833Z,98890.63
2023-01-12T19:25:25.678Z,98875.09
2023-01-12T19:28:10.860Z,98868.19
2023-01-12T19:30:38.760Z,98859.31
2023-01-12T19:33:08.890Z,98849.88
2023-01-12T19:35:37.533Z,98843.84
2023-01-12T19:38:04.187Z,98835.00
2023-01-12T19:40:36.071Z,98822.09
2023-01-12T19:43:29.988Z,98821.28
2023-01-12T19:45:59.376Z,98809.84
2023-01-12T19:48:26.745Z,98805.41
2023-01-12T19:50:54.516Z,98800.69
2023-01-12T19:53:25.283Z,98788.28
2023-01-12T19:55:52.467Z,98777.13
2023-01-12T19:58:22.161Z,98769.94
2023-01-12T20:00:50.124Z,98751.91
2023-01-12T20:03:19.612Z,98742.38
2023-01-12T20:05:50.055Z,98740.22
2023-01-12T20:08:18.264Z,98731.75
2023-01-12T20:10:45.317Z,98731.16
2023-01-12T20:13:13.455Z,98715.63
2023-01-12T20:15:43.142Z,98708.50
2023-01-12T20:18:09.982Z,98710.16
2023-01-12T20:20:36.806Z,98712.53
2023-01-12T20:23:03.623Z,98696.25
2023-01-12T20:25:30.485Z,98693.38
2023-01-12T20:27:57.734Z,98692.66
2023-01-12T20:30:37.542Z,98676.31
2023-01-12T20:33:05.988Z,98677.78
2023-01-12T20:35:33.035Z,98679.34
2023-01-12T20:38:06.664Z,98668.88
2023-01-12T20:40:33.591Z,98662.09
2023-01-12T20:43:00.760Z,98654.47
2023-01-12T20:45:27.810Z,98654.97
2023-01-12T20:47:56.033Z,98650.75
2023-01-12T20:50:25.475Z,98648.19
2023-01-12T20:52:54.167Z,98640.88
2023-01-12T20:55:21.445Z,98640.91
2023-01-12T20:57:48.116Z,98635.34
2023-01-12T21:00:15.615Z,98633.44
2023-01-12T21:02:42.358Z,98625.00
2023-01-12T21:05:09.422Z,98700.63
2023-01-12T21:07:36.169Z,98698.47
2023-01-12T21:10:02.902Z,98706.34
2023-01-12T21:12:29.675Z,98701.28
2023-01-12T21:14:56.369Z,98722.97
2023-01-12T21:17:23.091Z,98703.34
2023-01-12T21:19:49.893Z,98696.03
2023-01-12T21:22:16.653Z,98681.97
2023-01-12T21:24:43.305Z,98681.31
2023-01-12T21:27:10.139Z,98683.19
2023-01-12T21:29:36.939Z,98683.91
2023-01-12T21:32:03.973Z,98680.84
2023-01-12T21:34:30.625Z,98680.50
2023-01-12T21:36:58.009Z,98671.03
2023-01-12T21:39:24.684Z,98661.38
2023-01-12T21:42:09.971Z,98675.13
2023-01-12T21:44:36.816Z,98663.94
2023-01-12T21:47:03.626Z,98664.94
2023-01-12T21:49:30.349Z,98663.44
2023-01-12T21:51:57.139Z,98664.47
2023-01-12T21:54:23.975Z,98653.63
2023-01-12T21:56:50.719Z,98656.19
2023-01-12T21:59:18.537Z,98648.03
2023-01-12T22:01:45.582Z,98644.47
2023-01-12T22:04:12.264Z,98639.38
2023-01-12T22:06:39.034Z,98632.78
2023-01-12T22:09:05.721Z,98633.94
2023-01-12T22:11:32.438Z,98631.78
2023-01-12T22:13:59.414Z,98629.22
2023-01-12T22:16:26.189Z,98632.59
2023-01-12T22:18:53.025Z,98631.44
2023-01-12T22:21:21.004Z,98629.25
2023-01-12T22:23:49.820Z,98633.69
2023-01-12T22:26:17.730Z,98634.63
2023-01-12T22:28:47.689Z,98622.09
2023-01-12T22:31:19.452Z,98632.59
2023-01-12T22:34:12.897Z,98633.59
2023-01-12T22:36:43.396Z,98638.34
2023-01-12T22:39:13.654Z,98637.00
2023-01-12T22:41:40.901Z,98629.53
2023-01-12T22:44:07.751Z,98632.09
2023-01-12T22:46:34.605Z,98631.56
2023-01-12T22:49:01.543Z,98640.41
2023-01-12T22:51:32.004Z,98635.66
2023-01-12T22:53:58.836Z,98637.88
2023-01-12T22:56:26.030Z,98651.44
2023-01-12T22:58:55.360Z,98648.53
2023-01-12T23:01:25.505Z,98639.38
2023-01-12T23:03:54.622Z,98652.81
2023-01-12T23:06:22.611Z,98645.47
2023-01-12T23:08:51.823Z,98651.63
2023-01-12T23:11:24.106Z,98650.09
2023-01-12T23:13:51.668Z,98658.38
2023-01-12T23:16:19.298Z,98647.19
2023-01-12T23:18:47.611Z,98658.72
2023-01-12T23:21:18.601Z,98654.47
2023-01-12T23:23:51.230Z,98660.09
2023-01-12T23:26:23.841Z,98659.25
2023-01-12T23:28:55.785Z,98652.47
2023-01-12T23:31:25.252Z,98660.09
2023-01-12T23:33:52.959Z,98670.31
2023-01-12T23:36:21.936Z,98668.78
2023-01-12T23:39:00.266Z,98678.72
2023-01-12T23:41:28.612Z,98672.47
2023-01-12T23:43:58.429Z,98675.53
2023-01-12T23:46:26.366Z,98677.91
2023-01-12T23:48:55.354Z,98691.44
2023-01-12T23:51:24.035Z,98680.44
2023-01-12T23:53:57.429Z,98687.38
2023-01-12T23:56:24.159Z,98693.00
2023-01-12T23:58:50.869Z,98695.03
